createdAt,value
2022-08-26T00:00:15.598Z,22.91
2022-08-26T00:01:14.046Z,22.85
2022-08-26T00:02:13.877Z,22.88
2022-08-26T00:03:13.799Z,22.84
2022-08-26T00:04:13.854Z,22.76
2022-08-26T00:05:13.224Z,22.69
2022-08-26T00:06:13.260Z,22.69
2022-08-26T00:07:13.201Z,22.67
2022-08-26T00:08:13.221Z,22.64
2022-08-26T00:09:13.173Z,22.60
2022-08-26T00:10:13.159Z,22.59
2022-08-26T00:11:13.162Z,22.45
2022-08-26T00:12:13.178Z,22.36
2022-08-26T00:13:13.129Z,22.29
2022-08-26T00:14:13.137Z,22.24
2022-08-26T00:15:13.154Z,22.20
2022-08-26T00:16:13.160Z,22.17
2022-08-26T00:17:13.175Z,22.20
2022-08-26T00:18:21.819Z,22.19
2022-08-26T00:19:14.224Z,22.20
2022-08-26T00:20:13.225Z,22.21
2022-08-26T00:21:13.243Z,22.17
2022-08-26T00:22:13.295Z,22.14
2022-08-26T00:23:14.375Z,22.12
2022-08-26T00:24:12.977Z,22.14
2022-08-26T00:25:13.003Z,22.19
2022-08-26T00:26:13.033Z,22.19
2022-08-26T00:27:13.085Z,22.24
2022-08-26T00:28:13.125Z,22.26
2022-08-26T00:29:13.056Z,22.27
2022-08-26T00:30:13.894Z,22.27
2022-08-26T00:31:12.985Z,22.23
2022-08-26T00:32:12.975Z,22.20
2022-08-26T00:33:12.975Z,22.15
2022-08-26T00:34:12.967Z,22.11
2022-08-26T00:35:12.847Z,22.09
2022-08-26T00:36:19.848Z,22.09
2022-08-26T00:37:16.289Z,22.09
2022-08-26T00:38:12.785Z,22.09
2022-08-26T00:39:12.793Z,22.06
2022-08-26T00:40:12.780Z,22.05
2022-08-26T00:41:12.737Z,22.04
2022-08-26T00:42:12.749Z,21.99
2022-08-26T00:43:12.737Z,22.01
2022-08-26T00:44:12.739Z,21.99
2022-08-26T00:45:12.759Z,21.94
2022-08-26T00:46:13.783Z,21.90
2022-08-26T00:47:12.752Z,21.89
2022-08-26T00:48:12.652Z,21.86
2022-08-26T00:49:12.651Z,21.85
2022-08-26T00:50:12.678Z,21.83
2022-08-26T00:51:12.713Z,21.85
2022-08-26T00:52:13.635Z,21.85
2022-08-26T00:53:12.691Z,21.86
2022-08-26T00:54:12.691Z,21.86
2022-08-26T00:55:12.581Z,21.86
2022-08-26T00:56:13.772Z,21.85
2022-08-26T00:57:16.396Z,21.83
2022-08-26T00:58:12.539Z,21.83
2022-08-26T00:59:12.543Z,21.82
2022-08-26T01:00:12.527Z,21.83
2022-08-26T01:01:12.580Z,21.82
2022-08-26T01:02:20.026Z,21.82
2022-08-26T01:03:13.499Z,21.82
2022-08-26T01:04:12.506Z,21.81
2022-08-26T01:05:12.511Z,21.81
2022-08-26T01:06:13.171Z,21.79
2022-08-26T01:07:12.583Z,21.79
2022-08-26T01:08:12.404Z,21.77
2022-08-26T01:09:12.398Z,21.79
2022-08-26T01:10:12.397Z,21.77
2022-08-26T01:11:12.382Z,21.75
2022-08-26T01:12:13.325Z,21.77
2022-08-26T01:13:12.415Z,21.73
2022-08-26T01:14:12.376Z,21.74
2022-08-26T01:15:12.367Z,21.71
2022-08-26T01:16:12.390Z,21.68
2022-08-26T01:17:12.275Z,21.67
2022-08-26T01:18:12.331Z,21.64
2022-08-26T01:19:12.375Z,21.66
2022-08-26T01:20:12.634Z,21.61
2022-08-26T01:21:12.375Z,21.58
2022-08-26T01:22:12.356Z,21.51
2022-08-26T01:23:12.344Z,21.48
2022-08-26T01:24:12.336Z,21.49
2022-08-26T01:25:12.390Z,21.45
2022-08-26T01:26:19.723Z,21.45
2022-08-26T01:27:13.388Z,21.40
2022-08-26T01:28:12.367Z,21.37
2022-08-26T01:29:12.390Z,21.36
2022-08-26T01:30:12.387Z,21.33
2022-08-26T01:31:12.462Z,21.33
2022-08-26T01:32:12.373Z,21.33
2022-08-26T01:33:12.340Z,21.31
2022-08-26T01:34:12.083Z,21.28
2022-08-26T01:35:12.057Z,21.27
2022-08-26T01:36:12.053Z,21.28
2022-08-26T01:37:13.646Z,21.27
2022-08-26T01:38:12.109Z,21.22
2022-08-26T01:39:12.087Z,21.21
2022-08-26T01:40:12.160Z,21.18
2022-08-26T01:41:19.761Z,21.21
2022-08-26T01:42:13.089Z,21.18
2022-08-26T01:43:12.089Z,21.15
2022-08-26T01:44:12.123Z,21.16
2022-08-26T01:45:13.077Z,21.15
2022-08-26T01:46:12.179Z,21.15
2022-08-26T01:47:12.141Z,21.15
2022-08-26T01:48:12.180Z,21.11
2022-08-26T01:49:12.175Z,21.11
2022-08-26T01:50:12.189Z,21.09
2022-08-26T01:51:12.172Z,21.05
2022-08-26T01:52:12.166Z,21.01
2022-08-26T01:53:12.369Z,21.01
2022-08-26T01:54:13.845Z,20.98
2022-08-26T01:55:11.812Z,20.97
2022-08-26T01:56:11.773Z,21.00
2022-08-26T01:57:11.781Z,20.98
2022-08-26T01:58:11.752Z,20.96
2022-08-26T01:59:12.263Z,20.94
2022-08-26T02:00:11.961Z,20.91
2022-08-26T02:01:11.760Z,20.91
2022-08-26T02:02:11.703Z,20.90
2022-08-26T02:03:11.701Z,20.91
2022-08-26T02:04:11.710Z,20.91
2022-08-26T02:05:11.664Z,20.88
2022-08-26T02:06:11.682Z,20.87
2022-08-26T02:07:11.641Z,20.85
2022-08-26T02:08:11.635Z,20.81
2022-08-26T02:09:12.622Z,20.78
2022-08-26T02:10:11.582Z,20.76
2022-08-26T02:11:11.568Z,20.73
2022-08-26T02:12:11.584Z,20.73
2022-08-26T02:13:11.585Z,20.72
2022-08-26T02:14:11.595Z,20.73
2022-08-26T02:15:11.637Z,20.72
2022-08-26T02:16:11.659Z,20.71
2022-08-26T02:17:11.630Z,20.69
2022-08-26T02:18:14.187Z,20.69
2022-08-26T02:19:11.733Z,20.64
2022-08-26T02:20:13.083Z,20.63
2022-08-26T02:21:11.704Z,20.63
2022-08-26T02:22:11.726Z,20.60
2022-08-26T02:23:11.737Z,20.60
2022-08-26T02:24:11.438Z,20.58
2022-08-26T02:25:11.434Z,20.56
2022-08-26T02:26:11.430Z,20.53
2022-08-26T02:27:11.429Z,20.53
2022-08-26T02:28:11.473Z,20.50
2022-08-26T02:29:11.411Z,20.50
2022-08-26T02:30:11.426Z,20.48
2022-08-26T02:31:11.551Z,20.44
2022-08-26T02:32:11.970Z,20.42
2022-08-26T02:33:12.501Z,20.41
2022-08-26T02:34:11.484Z,20.42
2022-08-26T02:35:11.486Z,20.42
2022-08-26T02:36:12.141Z,20.42
2022-08-26T02:37:11.519Z,20.42
2022-08-26T02:38:12.539Z,20.40
2022-08-26T02:39:14.256Z,20.40
2022-08-26T02:40:11.579Z,20.41
2022-08-26T02:41:11.540Z,20.35
2022-08-26T02:42:11.570Z,20.33
2022-08-26T02:43:11.600Z,20.27
2022-08-26T02:44:11.662Z,20.25
2022-08-26T02:45:12.590Z,20.23
2022-08-26T02:46:11.712Z,20.17
2022-08-26T02:47:12.673Z,20.15
2022-08-26T02:48:11.657Z,20.13
2022-08-26T02:49:11.690Z,20.16
2022-08-26T02:50:11.713Z,20.10
2022-08-26T02:51:11.695Z,20.10
2022-08-26T02:52:11.712Z,20.07
2022-08-26T02:53:11.747Z,20.07
2022-08-26T02:54:11.050Z,20.04
2022-08-26T02:55:11.076Z,20.04
2022-08-26T02:56:11.005Z,20.04
2022-08-26T02:57:11.035Z,20.05
2022-08-26T02:58:10.993Z,20.07
2022-08-26T02:59:11.001Z,20.07
2022-08-26T03:00:11.007Z,20.07
2022-08-26T03:01:11.247Z,20.04
2022-08-26T03:02:11.052Z,20.07
2022-08-26T03:03:10.963Z,20.05
2022-08-26T03:04:10.956Z,20.02
2022-08-26T03:05:10.974Z,20.02
2022-08-26T03:06:10.976Z,20.00
2022-08-26T03:07:11.012Z,19.97
2022-08-26T03:08:10.986Z,19.94
2022-08-26T03:09:10.967Z,19.95
2022-08-26T03:10:11.973Z,19.97
2022-08-26T03:11:10.975Z,19.95
2022-08-26T03:12:10.995Z,19.95
2022-08-26T03:13:10.956Z,19.94
2022-08-26T03:14:10.800Z,19.97
2022-08-26T03:15:16.429Z,19.95
2022-08-26T03:16:11.881Z,19.98
2022-08-26T03:17:10.889Z,19.97
2022-08-26T03:18:10.899Z,19.95
2022-08-26T03:19:10.967Z,19.94
2022-08-26T03:20:10.663Z,19.94
2022-08-26T03:21:10.736Z,19.92
2022-08-26T03:22:10.728Z,19.94
2022-08-26T03:23:10.803Z,19.94
2022-08-26T03:24:10.740Z,19.94
2022-08-26T03:25:10.778Z,19.92
2022-08-26T03:26:10.948Z,19.92
2022-08-26T03:27:10.810Z,19.92
2022-08-26T03:28:10.579Z,19.92
2022-08-26T03:29:10.595Z,19.92
2022-08-26T03:30:11.883Z,19.90
2022-08-26T03:31:10.665Z,19.92
2022-08-26T03:32:10.683Z,19.92
2022-08-26T03:33:10.498Z,19.90
2022-08-26T03:34:11.342Z,19.89
2022-08-26T03:35:10.578Z,19.90
2022-08-26T03:36:10.489Z,19.92
2022-08-26T03:37:10.502Z,19.94
2022-08-26T03:38:10.490Z,19.92
2022-08-26T03:39:10.422Z,19.90
2022-08-26T03:40:10.620Z,19.90
2022-08-26T03:41:10.483Z,19.86
2022-08-26T03:42:10.747Z,19.89
2022-08-26T03:43:10.720Z,19.86
2022-08-26T03:44:10.605Z,19.87
2022-08-26T03:45:11.573Z,19.87
2022-08-26T03:46:10.729Z,19.89
2022-08-26T03:47:10.668Z,19.89
2022-08-26T03:48:10.691Z,19.90
2022-08-26T03:49:10.712Z,19.89
2022-08-26T03:50:10.749Z,19.90
2022-08-26T03:51:10.795Z,19.90
2022-08-26T03:52:13.274Z,19.87
2022-08-26T03:53:13.281Z,19.89
2022-08-26T03:54:10.877Z,19.89
2022-08-26T03:55:10.893Z,19.90
2022-08-26T03:56:10.956Z,19.90
2022-08-26T03:57:10.965Z,19.90
2022-08-26T03:58:12.050Z,19.90
2022-08-26T03:59:11.005Z,19.90
2022-08-26T04:00:11.047Z,19.87
2022-08-26T04:01:10.037Z,19.86
2022-08-26T04:02:11.553Z,19.85
2022-08-26T04:03:10.545Z,19.85
2022-08-26T04:04:10.175Z,19.82
2022-08-26T04:05:11.224Z,19.83
2022-08-26T04:06:10.275Z,19.85
2022-08-26T04:07:10.290Z,19.86
2022-08-26T04:08:10.300Z,19.85
2022-08-26T04:09:10.359Z,19.83
2022-08-26T04:10:10.380Z,19.85
2022-08-26T04:11:10.403Z,19.83
2022-08-26T04:12:10.431Z,19.85
2022-08-26T04:13:18.916Z,19.85
2022-08-26T04:14:10.476Z,19.89
2022-08-26T04:15:11.484Z,19.86
2022-08-26T04:16:10.574Z,19.86
2022-08-26T04:17:10.599Z,19.85
2022-08-26T04:18:10.562Z,19.86
2022-08-26T04:19:10.611Z,19.83
2022-08-26T04:20:10.618Z,19.83
2022-08-26T04:21:10.655Z,19.83
2022-08-26T04:22:10.643Z,19.85
2022-08-26T04:23:10.645Z,19.83
2022-08-26T04:24:11.882Z,19.83
2022-08-26T04:25:10.659Z,19.86
2022-08-26T04:26:10.971Z,19.89
2022-08-26T04:27:10.631Z,19.86
2022-08-26T04:28:10.642Z,19.87
2022-08-26T04:29:15.874Z,19.86
2022-08-26T04:30:09.675Z,19.86
2022-08-26T04:31:09.715Z,19.85
2022-08-26T04:32:09.693Z,19.85
2022-08-26T04:33:13.270Z,19.86
2022-08-26T04:34:11.021Z,19.86
2022-08-26T04:35:09.788Z,19.85
2022-08-26T04:36:09.786Z,19.86
2022-08-26T04:37:09.823Z,19.85
2022-08-26T04:38:09.853Z,19.86
2022-08-26T04:39:09.872Z,19.85
2022-08-26T04:40:09.967Z,19.85
2022-08-26T04:41:10.658Z,19.85
2022-08-26T04:42:10.935Z,19.87
2022-08-26T04:43:09.975Z,19.86
2022-08-26T04:44:10.002Z,19.87
2022-08-26T04:45:14.137Z,19.87
2022-08-26T04:46:10.095Z,19.87
2022-08-26T04:47:10.115Z,19.90
2022-08-26T04:48:11.156Z,19.90
2022-08-26T04:49:10.204Z,19.90
2022-08-26T04:50:10.931Z,19.90
2022-08-26T04:51:10.296Z,19.92
2022-08-26T04:52:10.317Z,19.90
2022-08-26T04:53:10.498Z,19.92
2022-08-26T04:54:09.321Z,19.94
2022-08-26T04:55:09.356Z,19.94
2022-08-26T04:56:09.384Z,19.92
2022-08-26T04:57:09.459Z,19.92
2022-08-26T04:58:10.351Z,19.92
2022-08-26T04:59:16.683Z,19.87
2022-08-26T05:00:10.496Z,19.92
2022-08-26T05:01:09.557Z,19.92
2022-08-26T05:02:09.685Z,19.90
2022-08-26T05:03:10.542Z,19.90
2022-08-26T05:04:09.818Z,19.92
2022-08-26T05:05:09.813Z,19.94
2022-08-26T05:06:09.856Z,19.94
2022-08-26T05:07:13.347Z,19.95
2022-08-26T05:08:09.988Z,19.95
2022-08-26T05:09:10.029Z,19.98
2022-08-26T05:10:10.118Z,19.98
2022-08-26T05:11:09.433Z,19.98
2022-08-26T05:12:09.177Z,20.00
2022-08-26T05:13:10.657Z,20.00
2022-08-26T05:14:09.234Z,19.98
2022-08-26T05:15:09.291Z,19.97
2022-08-26T05:16:09.385Z,19.98
2022-08-26T05:17:09.429Z,19.98
2022-08-26T05:18:14.211Z,19.98
2022-08-26T05:19:11.594Z,20.00
2022-08-26T05:20:09.541Z,20.00
2022-08-26T05:21:10.613Z,20.00
2022-08-26T05:22:09.609Z,20.01
2022-08-26T05:23:09.896Z,20.01
2022-08-26T05:24:09.854Z,20.00
2022-08-26T05:25:09.708Z,20.00
2022-08-26T05:26:09.775Z,20.01
2022-08-26T05:27:11.781Z,20.01
2022-08-26T05:28:09.771Z,20.02
2022-08-26T05:29:09.803Z,20.01
2022-08-26T05:30:09.834Z,20.01
2022-08-26T05:31:09.891Z,20.02
2022-08-26T05:32:08.848Z,20.02
2022-08-26T05:33:10.025Z,20.01
2022-08-26T05:34:08.852Z,20.01
2022-08-26T05:35:09.913Z,20.01
2022-08-26T05:36:08.898Z,20.02
2022-08-26T05:37:09.955Z,20.04
2022-08-26T05:38:12.397Z,20.05
2022-08-26T05:39:10.676Z,20.05
2022-08-26T05:40:09.026Z,20.04
2022-08-26T05:41:09.051Z,20.05
2022-08-26T05:42:09.062Z,20.08
2022-08-26T05:43:09.277Z,20.08
2022-08-26T05:44:09.105Z,20.08
2022-08-26T05:45:09.151Z,20.12
2022-08-26T05:46:09.248Z,20.10
2022-08-26T05:47:09.234Z,20.12
2022-08-26T05:48:09.276Z,20.05
2022-08-26T05:49:12.572Z,20.10
2022-08-26T05:50:10.353Z,20.08
2022-08-26T05:51:09.379Z,20.12
2022-08-26T05:52:09.373Z,20.15
2022-08-26T05:53:09.714Z,20.13
2022-08-26T05:54:10.681Z,20.15
2022-08-26T05:55:09.488Z,20.13
2022-08-26T05:56:09.486Z,20.12
2022-08-26T05:57:09.498Z,20.12
2022-08-26T05:58:09.494Z,20.12
2022-08-26T05:59:14.196Z,20.12
2022-08-26T06:00:09.549Z,20.12
2022-08-26T06:01:09.587Z,20.12
2022-08-26T06:02:09.640Z,20.15
2022-08-26T06:03:09.946Z,20.12
2022-08-26T06:04:08.647Z,20.13
2022-08-26T06:05:08.697Z,20.15
2022-08-26T06:06:09.794Z,20.15
2022-08-26T06:07:11.555Z,20.15
2022-08-26T06:08:08.810Z,20.13
2022-08-26T06:09:11.243Z,20.16
2022-08-26T06:10:33.667Z,20.16
2022-08-26T06:11:12.712Z,20.17
2022-08-26T06:12:09.987Z,20.19
2022-08-26T06:13:11.751Z,20.15
2022-08-26T06:14:09.118Z,20.22
2022-08-26T06:15:09.049Z,20.20
2022-08-26T06:16:09.139Z,20.23
2022-08-26T06:17:09.526Z,20.26
2022-08-26T06:18:10.309Z,20.25
2022-08-26T06:19:10.599Z,20.25
2022-08-26T06:20:11.323Z,20.23
2022-08-26T06:21:09.280Z,20.25
2022-08-26T06:22:09.245Z,20.23
2022-08-26T06:23:09.492Z,20.25
2022-08-26T06:24:08.239Z,20.25
2022-08-26T06:25:09.272Z,20.30
2022-08-26T06:26:08.274Z,20.31
2022-08-26T06:27:11.342Z,20.35
2022-08-26T06:28:10.384Z,20.34
2022-08-26T06:29:09.416Z,20.34
2022-08-26T06:30:11.537Z,20.33
2022-08-26T06:31:08.533Z,20.31
2022-08-26T06:32:09.569Z,20.30
2022-08-26T06:33:09.749Z,20.35
2022-08-26T06:34:10.859Z,20.38
2022-08-26T06:35:11.952Z,20.40
2022-08-26T06:36:09.685Z,20.44
2022-08-26T06:37:08.678Z,20.46
2022-08-26T06:38:09.745Z,20.44
2022-08-26T06:39:08.806Z,20.46
2022-08-26T06:40:08.858Z,20.50
2022-08-26T06:41:08.794Z,20.46
2022-08-26T06:42:11.796Z,20.48
2022-08-26T06:43:09.088Z,20.48
2022-08-26T06:44:08.894Z,20.48
2022-08-26T06:45:12.020Z,20.50
2022-08-26T06:46:07.930Z,20.54
2022-08-26T06:47:08.986Z,20.54
2022-08-26T06:48:11.081Z,20.53
2022-08-26T06:49:09.063Z,20.53
2022-08-26T06:50:11.187Z,20.54
2022-08-26T06:51:10.075Z,20.53
2022-08-26T06:52:09.131Z,20.54
2022-08-26T06:53:08.305Z,20.54
2022-08-26T06:54:09.224Z,20.58
2022-08-26T06:55:10.221Z,20.57
2022-08-26T06:56:09.329Z,20.57
2022-08-26T06:57:08.296Z,20.58
2022-08-26T06:58:09.381Z,20.60
2022-08-26T06:59:11.563Z,20.61
2022-08-26T07:00:08.379Z,20.64
2022-08-26T07:01:11.619Z,20.66
2022-08-26T07:02:08.487Z,20.68
2022-08-26T07:03:09.732Z,20.66
2022-08-26T07:04:10.548Z,20.66
2022-08-26T07:05:09.560Z,20.61
2022-08-26T07:06:08.518Z,20.66
2022-08-26T07:07:09.700Z,20.68
2022-08-26T07:08:10.685Z,20.68
2022-08-26T07:09:09.959Z,20.73
2022-08-26T07:10:09.691Z,20.69
2022-08-26T07:11:08.680Z,20.68
2022-08-26T07:12:08.712Z,20.68
2022-08-26T07:13:09.805Z,20.66
2022-08-26T07:14:07.943Z,20.66
2022-08-26T07:15:08.842Z,20.66
2022-08-26T07:16:09.140Z,20.69
2022-08-26T07:17:13.720Z,20.69
2022-08-26T07:18:08.883Z,20.69
2022-08-26T07:19:11.206Z,20.66
2022-08-26T07:20:07.925Z,20.68
2022-08-26T07:21:08.971Z,20.68
2022-08-26T07:22:09.191Z,20.71
2022-08-26T07:23:10.089Z,20.72
2022-08-26T07:24:09.064Z,20.69
2022-08-26T07:25:08.044Z,20.71
2022-08-26T07:26:08.062Z,20.71
2022-08-26T07:27:09.124Z,20.73
2022-08-26T07:28:09.131Z,20.72
2022-08-26T07:29:09.133Z,20.76
2022-08-26T07:30:08.131Z,20.78
2022-08-26T07:31:09.638Z,20.79
2022-08-26T07:32:09.249Z,20.76
2022-08-26T07:33:08.452Z,20.79
2022-08-26T07:34:08.258Z,20.81
2022-08-26T07:35:08.258Z,20.82
2022-08-26T07:36:08.286Z,20.83
2022-08-26T07:37:09.339Z,20.85
2022-08-26T07:38:11.495Z,20.87
2022-08-26T07:39:10.459Z,20.85
2022-08-26T07:40:10.522Z,20.85
2022-08-26T07:41:07.415Z,20.85
2022-08-26T07:42:08.638Z,20.87
2022-08-26T07:43:09.842Z,20.88
2022-08-26T07:44:08.564Z,20.97
2022-08-26T07:45:09.630Z,20.91
2022-08-26T07:46:15.895Z,20.94
2022-08-26T07:47:10.436Z,20.94
2022-08-26T07:48:09.683Z,20.96
2022-08-26T07:49:08.742Z,20.94
2022-08-26T07:50:08.728Z,20.94
2022-08-26T07:51:08.810Z,20.97
2022-08-26T07:52:09.728Z,20.98
2022-08-26T07:53:10.834Z,21.01
2022-08-26T07:54:08.859Z,21.01
2022-08-26T07:55:09.968Z,20.97
2022-08-26T07:56:08.950Z,20.97
2022-08-26T07:57:10.006Z,20.98
2022-08-26T07:58:07.973Z,21.00
2022-08-26T07:59:08.646Z,21.00
2022-08-26T08:00:07.991Z,20.98
2022-08-26T08:01:09.143Z,20.94
2022-08-26T08:02:09.148Z,20.93
2022-08-26T08:03:09.423Z,20.94
2022-08-26T08:04:09.231Z,20.94
2022-08-26T08:05:08.336Z,20.98
2022-08-26T08:06:08.276Z,21.00
2022-08-26T08:07:11.558Z,21.01
2022-08-26T08:08:26.875Z,21.05
2022-08-26T08:09:08.327Z,21.06
2022-08-26T08:10:11.583Z,21.03
2022-08-26T08:11:11.467Z,21.06
2022-08-26T08:12:08.455Z,21.06
2022-08-26T08:13:08.688Z,21.06
2022-08-26T08:14:11.881Z,21.03
2022-08-26T08:15:08.520Z,21.00
2022-08-26T08:16:13.723Z,20.98
2022-08-26T08:18:14.047Z,21.00
2022-08-26T08:19:08.583Z,21.03
2022-08-26T08:20:08.677Z,21.08
2022-08-26T08:21:21.769Z,21.09
2022-08-26T08:22:17.407Z,21.12
2022-08-26T08:23:09.841Z,21.11
2022-08-26T08:24:08.785Z,21.13
2022-08-26T08:25:10.483Z,21.13
2022-08-26T08:26:08.810Z,21.12
2022-08-26T08:27:10.907Z,21.11
2022-08-26T08:28:10.180Z,21.08
2022-08-26T08:29:08.908Z,21.06
2022-08-26T08:30:08.907Z,21.09
2022-08-26T08:31:09.049Z,21.12
2022-08-26T08:32:10.015Z,21.13
2022-08-26T08:33:12.147Z,21.15
2022-08-26T08:34:09.075Z,21.18
2022-08-26T08:35:11.033Z,21.18
2022-08-26T08:36:09.380Z,21.22
2022-08-26T08:37:10.909Z,21.22
2022-08-26T08:38:09.328Z,21.19
2022-08-26T08:39:09.263Z,21.22
2022-08-26T08:40:10.342Z,21.24
2022-08-26T08:41:09.279Z,21.26
2022-08-26T08:42:10.374Z,21.24
2022-08-26T08:43:09.586Z,21.18
2022-08-26T08:44:08.331Z,21.13
2022-08-26T08:45:08.371Z,21.13
2022-08-26T08:46:08.391Z,21.12
2022-08-26T08:47:09.433Z,21.13
2022-08-26T08:48:08.562Z,21.16
2022-08-26T08:49:08.489Z,21.16
2022-08-26T08:50:09.663Z,21.19
2022-08-26T08:51:08.613Z,21.33
2022-08-26T08:52:10.555Z,21.21
2022-08-26T08:53:09.034Z,21.16
2022-08-26T08:54:08.591Z,21.15
2022-08-26T08:55:11.034Z,21.16
2022-08-26T08:56:09.783Z,21.16
2022-08-26T08:57:09.663Z,21.19
2022-08-26T08:58:08.795Z,21.19
2022-08-26T08:59:08.660Z,21.21
2022-08-26T09:00:07.663Z,21.22
2022-08-26T09:01:09.765Z,21.22
2022-08-26T09:02:07.728Z,21.26
2022-08-26T09:03:08.682Z,21.26
2022-08-26T09:04:07.724Z,21.24
2022-08-26T09:05:08.713Z,21.26
2022-08-26T09:06:07.668Z,21.26
2022-08-26T09:07:08.961Z,21.27
2022-08-26T09:08:11.278Z,21.27
2022-08-26T09:09:07.748Z,21.28
2022-08-26T09:10:09.832Z,21.28
2022-08-26T09:11:09.894Z,21.28
2022-08-26T09:12:08.864Z,21.30
2022-08-26T09:13:09.968Z,21.31
2022-08-26T09:14:07.876Z,21.31
2022-08-26T09:15:09.007Z,21.36
2022-08-26T09:16:10.315Z,21.36
2022-08-26T09:17:09.092Z,21.38
2022-08-26T09:18:10.885Z,21.33
2022-08-26T09:19:08.085Z,21.33
2022-08-26T09:20:11.185Z,21.34
2022-08-26T09:21:09.145Z,21.34
2022-08-26T09:22:09.573Z,21.33
2022-08-26T09:23:11.107Z,21.36
2022-08-26T09:24:11.081Z,21.40
2022-08-26T09:25:08.276Z,21.45
2022-08-26T09:26:08.270Z,21.46
2022-08-26T09:27:08.265Z,21.51
2022-08-26T09:28:08.394Z,21.51
2022-08-26T09:29:09.403Z,21.55
2022-08-26T09:30:06.246Z,21.55
2022-08-26T09:31:10.672Z,21.58
2022-08-26T09:32:07.288Z,21.58
2022-08-26T09:33:10.022Z,21.59
2022-08-26T09:34:06.301Z,21.56
2022-08-26T09:35:07.208Z,21.55
2022-08-26T09:36:06.312Z,21.56
2022-08-26T09:37:06.327Z,21.58
2022-08-26T09:38:09.311Z,21.58
2022-08-26T09:39:07.347Z,21.58
2022-08-26T09:40:06.386Z,21.61
2022-08-26T09:41:06.400Z,21.61
2022-08-26T09:42:06.404Z,21.61
2022-08-26T09:43:06.386Z,21.64
2022-08-26T09:44:06.369Z,21.73
2022-08-26T09:45:06.406Z,21.70
2022-08-26T09:46:07.360Z,21.70
2022-08-26T09:47:07.681Z,21.68
2022-08-26T09:48:06.493Z,21.67
2022-08-26T09:49:06.382Z,21.66
2022-08-26T09:50:09.935Z,21.66
2022-08-26T09:51:07.379Z,21.64
2022-08-26T09:52:06.405Z,21.63
2022-08-26T09:53:12.814Z,21.59
2022-08-26T09:54:08.222Z,21.61
2022-08-26T09:55:05.379Z,21.61
2022-08-26T09:56:05.416Z,21.63
2022-08-26T09:57:05.404Z,21.66
2022-08-26T09:58:08.705Z,21.67
2022-08-26T09:59:07.189Z,21.66
2022-08-26T10:00:05.488Z,21.67
2022-08-26T10:01:05.522Z,21.67
2022-08-26T10:02:05.482Z,21.64
2022-08-26T10:03:06.520Z,21.64
2022-08-26T10:04:05.596Z,21.66
2022-08-26T10:05:09.115Z,21.64
2022-08-26T10:06:05.522Z,21.66
2022-08-26T10:07:05.535Z,21.64
2022-08-26T10:08:05.564Z,21.66
2022-08-26T10:09:08.861Z,21.61
2022-08-26T10:10:05.565Z,21.58
2022-08-26T10:11:06.197Z,21.55
2022-08-26T10:12:05.608Z,21.59
2022-08-26T10:13:05.671Z,21.63
2022-08-26T10:14:05.616Z,21.61
2022-08-26T10:15:05.639Z,21.66
2022-08-26T10:16:06.609Z,21.64
2022-08-26T10:17:07.039Z,21.56
2022-08-26T10:18:05.694Z,21.52
2022-08-26T10:19:05.777Z,21.52
2022-08-26T10:20:05.687Z,21.49
2022-08-26T10:21:07.339Z,21.48
2022-08-26T10:22:05.708Z,21.49
2022-08-26T10:23:06.424Z,21.48
2022-08-26T10:24:05.766Z,21.49
2022-08-26T10:25:05.812Z,21.53
2022-08-26T10:26:05.757Z,21.55
2022-08-26T10:27:05.767Z,21.59
2022-08-26T10:28:05.940Z,21.63
2022-08-26T10:29:07.232Z,21.63
2022-08-26T10:30:05.784Z,21.63
2022-08-26T10:31:05.823Z,21.63
2022-08-26T10:32:05.893Z,21.61
2022-08-26T10:33:05.936Z,21.64
2022-08-26T10:34:04.882Z,21.63
2022-08-26T10:35:06.744Z,21.59
2022-08-26T10:36:04.888Z,21.56
2022-08-26T10:37:15.713Z,21.56
2022-08-26T10:38:06.006Z,21.58
2022-08-26T10:39:05.015Z,21.55
2022-08-26T10:40:05.011Z,21.52
2022-08-26T10:41:09.804Z,21.51
2022-08-26T10:42:05.061Z,21.51
2022-08-26T10:43:11.082Z,21.52
2022-08-26T10:44:06.022Z,21.53
2022-08-26T10:45:05.045Z,21.53
2022-08-26T10:46:05.111Z,21.48
2022-08-26T10:47:06.751Z,21.46
2022-08-26T10:48:05.266Z,21.51
2022-08-26T10:49:06.659Z,21.52
2022-08-26T10:50:05.074Z,21.49
2022-08-26T10:51:05.606Z,21.45
2022-08-26T10:52:15.153Z,21.40
2022-08-26T10:53:07.703Z,21.37
2022-08-26T10:54:05.073Z,21.31
2022-08-26T10:55:05.101Z,21.34
2022-08-26T10:56:05.109Z,21.36
2022-08-26T10:57:05.154Z,21.38
2022-08-26T10:58:08.087Z,21.36
2022-08-26T10:59:10.383Z,21.34
2022-08-26T11:00:05.257Z,21.34
2022-08-26T11:01:10.491Z,21.36
2022-08-26T11:02:06.285Z,21.33
2022-08-26T11:03:05.353Z,21.31
2022-08-26T11:04:06.015Z,21.30
2022-08-26T11:05:06.287Z,21.31
2022-08-26T11:06:05.325Z,21.36
2022-08-26T11:07:05.375Z,21.38
2022-08-26T11:08:05.409Z,21.48
2022-08-26T11:09:05.371Z,21.45
2022-08-26T11:10:05.918Z,21.51
2022-08-26T11:11:06.364Z,21.55
2022-08-26T11:12:10.182Z,21.56
2022-08-26T11:13:05.474Z,21.58
2022-08-26T11:14:04.418Z,21.56
2022-08-26T11:15:05.191Z,21.53
2022-08-26T11:16:04.490Z,21.55
2022-08-26T11:17:06.769Z,21.55
2022-08-26T11:18:04.440Z,21.56
2022-08-26T11:19:04.439Z,21.59
2022-08-26T11:20:08.949Z,21.55
2022-08-26T11:21:05.488Z,21.49
2022-08-26T11:22:04.509Z,21.52
2022-08-26T11:23:08.295Z,21.51
2022-08-26T11:24:04.559Z,21.52
2022-08-26T11:25:04.584Z,21.55
2022-08-26T11:26:04.559Z,21.61
2022-08-26T11:27:04.585Z,21.59
2022-08-26T11:28:04.641Z,21.61
2022-08-26T11:29:12.004Z,21.59
2022-08-26T11:30:05.639Z,21.59
2022-08-26T11:31:04.721Z,21.59
2022-08-26T11:32:04.706Z,21.63
2022-08-26T11:33:04.804Z,21.64
2022-08-26T11:34:04.713Z,21.64
2022-08-26T11:35:07.620Z,21.63
2022-08-26T11:36:07.473Z,21.59
2022-08-26T11:37:05.863Z,21.55
2022-08-26T11:38:04.879Z,21.52
2022-08-26T11:39:04.872Z,21.53
2022-08-26T11:40:04.969Z,21.55
2022-08-26T11:41:05.826Z,21.55
2022-08-26T11:42:04.914Z,21.56
2022-08-26T11:43:04.922Z,21.56
2022-08-26T11:44:04.973Z,21.58
2022-08-26T11:45:05.682Z,21.63
2022-08-26T11:46:04.081Z,21.66
2022-08-26T11:47:07.745Z,21.70
2022-08-26T11:48:04.018Z,21.68
2022-08-26T11:49:04.076Z,21.73
2022-08-26T11:50:04.046Z,21.68
2022-08-26T11:51:04.081Z,21.66
2022-08-26T11:52:04.129Z,21.67
2022-08-26T11:53:04.164Z,21.71
2022-08-26T11:54:04.135Z,21.73
2022-08-26T11:55:04.285Z,21.77
2022-08-26T11:56:04.186Z,21.86
2022-08-26T11:57:09.537Z,21.94
2022-08-26T11:58:06.829Z,21.96
2022-08-26T11:59:04.241Z,21.98
2022-08-26T12:00:05.138Z,21.90
2022-08-26T12:01:04.246Z,21.93
2022-08-26T12:02:06.312Z,21.93
2022-08-26T12:03:05.330Z,21.99
2022-08-26T12:04:04.475Z,21.99
2022-08-26T12:05:04.320Z,22.04
2022-08-26T12:06:04.357Z,22.05
2022-08-26T12:07:04.378Z,22.06
2022-08-26T12:08:04.441Z,22.08
2022-08-26T12:09:06.279Z,22.11
2022-08-26T12:10:04.503Z,22.17
2022-08-26T12:11:04.557Z,22.17
2022-08-26T12:12:04.570Z,22.20
2022-08-26T12:13:04.598Z,22.21
2022-08-26T12:14:03.571Z,22.23
2022-08-26T12:15:03.846Z,22.23
2022-08-26T12:16:03.695Z,22.23
2022-08-26T12:17:03.654Z,22.21
2022-08-26T12:18:04.774Z,22.23
2022-08-26T12:19:03.731Z,22.23
2022-08-26T12:20:03.752Z,22.27
2022-08-26T12:21:03.795Z,22.33
2022-08-26T12:22:03.790Z,22.39
2022-08-26T12:23:03.815Z,22.46
2022-08-26T12:24:03.821Z,22.52
2022-08-26T12:25:03.854Z,22.61
2022-08-26T12:26:03.924Z,22.69
2022-08-26T12:27:03.923Z,22.78
2022-08-26T12:28:03.948Z,22.88
2022-08-26T12:29:12.704Z,22.96
2022-08-26T12:30:04.936Z,22.99
2022-08-26T12:31:03.973Z,22.91
2022-08-26T12:32:04.013Z,22.88
2022-08-26T12:33:05.386Z,22.85
2022-08-26T12:34:04.978Z,22.84
2022-08-26T12:36:04.013Z,22.78
2022-08-26T12:37:04.010Z,22.76
2022-08-26T12:38:04.085Z,22.74
2022-08-26T12:39:04.018Z,22.69
2022-08-26T12:40:04.123Z,22.61
2022-08-26T12:41:04.103Z,22.56
2022-08-26T12:42:04.128Z,22.52
2022-08-26T12:43:04.143Z,22.49
2022-08-26T12:44:04.293Z,22.48
2022-08-26T12:45:03.136Z,22.54
2022-08-26T12:46:03.205Z,22.57
2022-08-26T12:47:03.222Z,22.63
2022-08-26T12:48:03.277Z,22.59
2022-08-26T12:49:03.272Z,22.60
2022-08-26T12:50:03.257Z,22.66
2022-08-26T12:51:03.273Z,22.66
2022-08-26T12:52:03.349Z,22.67
2022-08-26T12:53:03.348Z,22.64
2022-08-26T12:54:03.387Z,22.63